KSEP/SEP METAR and TAF weather

Enter ICAO airport designator
Station Type Date Time Source
KSEP METAR 2020/11/28 19:55 UTC NOAA

KSEP 281955Z AUTO 35007KT 10SM OVC006 09/08 A3012 RMK AO2 T00920079


Station Type Date Time Source
KSEP Decoded METAR 2020/11/28 19:55 UTC NOAA

Stephenville, Clark Field Municipal Airport, TX, United States (KSEP) 32-13N 098-11W 402M
Nov 28, 2020 - 02:55 PM EST / 2020.11.28 1955 UTC
Wind: from the N (350 degrees) at 8 MPH (7 KT):0
Visibility: 10 mile(s):0
Sky conditions: overcast
Temperature: 48.6 F (9.2 C)
Dew Point: 46.2 F (7.9 C)
Relative Humidity: 91%
Pressure (altimeter): 30.12 in. Hg (1019 hPa)
ob: KSEP 281955Z AUTO 35007KT 10SM OVC006 09/08 A3012 RMK AO2 T00920079
cycle: 20

Station Type Date Time Source
KSEP TAF UTC NOAA

Error!

Example: see airport list